Time;durP1;ratioP1;P1;durP2;ratioP2;P2;SDS_P1;SDS_P2;PMS_P1;PMS_P2;Temp;Humidity;BMP_temperature;BMP_pressure;BME280_temperature;BME280_humidity;BME280_pressure;Samples;Min_cycle;Max_cycle;Signal;HPM_P1;HPM_P2
2023/04/28 00:00:56;;;;;;;20.98;13.25;;;;;;;;;;2017928;29;20037;-74
2023/04/28 00:02:17;;;;;;;22.25;13.05;;;;;;;;;;2019092;29;20033;-75
2023/04/28 00:03:38;;;;;;;21.08;12.85;;;;;;;;;;2024654;29;20044;-75
2023/04/28 00:04:59;;;;;;;20.25;12.65;;;;;;;;;;2027919;29;20035;-75
2023/04/28 00:06:20;;;;;;;22.02;12.68;;;;;;;;;;2017958;29;20100;-74
2023/04/28 00:07:41;;;;;;;23.60;12.65;;;;;;;;;;2016493;29;20263;-74
2023/04/28 00:09:02;;;;;;;21.85;12.82;;;;;;;;;;2024403;29;20385;-74
2023/04/28 00:10:23;;;;;;;24.80;13.13;;;;;;;;;;2026533;29;20033;-75
2023/04/28 00:11:45;;;;;;;22.02;12.80;;;;;;;;;;2017512;29;20045;-74
2023/04/28 00:13:06;;;;;;;23.52;13.40;;;;;;;;;;2023558;29;20041;-76
2023/04/28 00:14:27;;;;;;;20.45;13.15;;;;;;;;;;2025480;29;20028;-76
2023/04/28 00:15:53;;;;;;;22.00;13.18;;;;;;;;;;2025373;29;20037;-75
2023/04/28 00:17:14;;;;;;;19.80;13.00;;;;;;;;;;2018026;29;20045;-76
2023/04/28 00:18:35;;;;;;;21.83;13.23;;;;;;;;;;2030194;29;20032;-75
2023/04/28 00:19:56;;;;;;;20.88;12.25;;;;;;;;;;2035410;29;20044;-76
2023/04/28 00:21:17;;;;;;;26.02;13.35;;;;;;;;;;2035946;29;20032;-76
2023/04/28 00:22:38;;;;;;;21.45;12.52;;;;;;;;;;2035407;29;20044;-75
2023/04/28 00:23:59;;;;;;;24.98;13.68;;;;;;;;;;2019565;29;20127;-75
2023/04/28 00:25:20;;;;;;;23.70;13.30;;;;;;;;;;2024012;29;20149;-75
2023/04/28 00:26:41;;;;;;;22.15;13.10;;;;;;;;;;2019455;29;20033;-73
2023/04/28 00:28:02;;;;;;;21.25;12.63;;;;;;;;;;2024363;29;20070;-74
2023/04/28 00:29:22;;;;;;;18.65;13.32;;;;;;;;;;2030032;29;20039;-76
2023/04/28 00:30:43;;;;;;;21.08;13.15;;;;;;;;;;2033580;29;20050;-74
2023/04/28 00:32:04;;;;;;;21.88;13.27;;;;;;;;;;2026925;29;20500;-74
2023/04/28 00:33:25;;;;;;;22.95;13.20;;;;;;;;;;2031670;29;20032;-74
2023/04/28 00:34:46;;;;;;;24.60;13.15;;;;;;;;;;2024970;29;20036;-75
2023/04/28 00:36:08;;;;;;;21.77;12.18;;;;;;;;;;2025486;29;20040;-75
2023/04/28 00:37:29;;;;;;;20.58;12.00;;;;;;;;;;2033103;29;20036;-75
2023/04/28 00:38:50;;;;;;;22.63;12.20;;;;;;;;;;2027315;29;20040;-76
2023/04/28 00:40:11;;;;;;;24.08;13.40;;;;;;;;;;2031015;29;20345;-74
2023/04/28 00:41:33;;;;;;;20.88;12.48;;;;;;;;;;2032556;29;20031;-74
2023/04/28 00:42:54;;;;;;;;;;;;;;;;;;2026608;29;20041;-75
2023/04/28 00:44:14;;;;;;;22.67;12.98;;;;;;;;;;2031453;29;19918;-75
2023/04/28 00:45:35;;;;;;;22.98;13.00;;;;;;;;;;2034320;29;20052;-74
2023/04/28 00:46:57;;;;;;;27.70;14.45;;;;;;;;;;2026809;29;20552;-75
2023/04/28 00:48:18;;;;;;;25.58;13.18;;;;;;;;;;2031681;29;20031;-75
2023/04/28 00:49:39;;;;;;;19.50;12.82;;;;;;;;;;2027383;29;20035;-75
2023/04/28 00:51:01;;;;;;;21.17;13.32;;;;;;;;;;2031805;29;20040;-75
2023/04/28 00:52:22;;;;;;;21.73;13.27;;;;;;;;;;2027202;29;20051;-74
2023/04/28 00:53:43;;;;;;;22.55;13.27;;;;;;;;;;2031766;29;20040;-75
2023/04/28 00:55:04;;;;;;;23.00;12.90;;;;;;;;;;2034299;29;20032;-75
2023/04/28 00:56:29;;;;;;;25.20;13.13;;;;;;;;;;2034451;29;20036;-75
2023/04/28 00:57:50;;;;;;;20.00;12.73;;;;;;;;;;2035519;29;20058;-75
2023/04/28 00:59:11;;;;;;;20.17;13.18;;;;;;;;;;2027558;29;20514;-75
2023/04/28 01:00:33;;;;;;;21.35;13.07;;;;;;;;;;2022612;29;20051;-71
2023/04/28 01:41:02;;;;;;;26.00;13.35;;;;;;;;;;1758719;23;20027;-92
2023/04/28 01:42:23;;;;;;;25.95;14.68;;;;;;;;;;2016743;29;20061;-96
2023/04/28 01:43:44;;;;;;;29.65;14.90;;;;;;;;;;2008997;29;20074;-96
2023/04/28 01:45:05;;;;;;;20.70;12.85;;;;;;;;;;2012384;29;20042;-96
2023/04/28 01:46:26;;;;;;;24.90;14.52;;;;;;;;;;2015833;29;20053;-96
2023/04/28 01:47:47;;;;;;;25.23;14.63;;;;;;;;;;2020282;29;20049;-96
2023/04/28 01:49:08;;;;;;;25.30;14.13;;;;;;;;;;2011761;29;20132;-96
2023/04/28 01:50:29;;;;;;;25.70;15.20;;;;;;;;;;2008899;29;20049;-96
2023/04/28 01:51:50;;;;;;;26.58;14.35;;;;;;;;;;2008990;29;20529;-96
2023/04/28 01:53:11;;;;;;;24.15;13.15;;;;;;;;;;2008711;29;20046;-96
2023/04/28 01:54:32;;;;;;;23.63;13.93;;;;;;;;;;2009442;29;20043;-96
2023/04/28 01:55:54;;;;;;;36.90;19.65;;;;;;;;;;2009662;29;20135;-96
2023/04/28 01:57:15;;;;;;;23.25;14.38;;;;;;;;;;2011154;29;20093;-96
2023/04/28 01:58:36;;;;;;;23.92;14.90;;;;;;;;;;2010332;29;20037;-96
2023/04/28 01:59:58;;;;;;;24.85;15.20;;;;;;;;;;2010279;29;20033;-96
2023/04/28 02:01:19;;;;;;;26.17;14.48;;;;;;;;;;2010275;29;20041;-96
2023/04/28 02:02:40;;;;;;;23.85;14.13;;;;;;;;;;2016972;29;20040;-96
2023/04/28 02:04:01;;;;;;;22.65;14.40;;;;;;;;;;2019597;29;20081;-96
2023/04/28 02:05:22;;;;;;;25.83;14.55;;;;;;;;;;2019750;29;20044;-96
2023/04/28 02:06:43;;;;;;;22.58;14.18;;;;;;;;;;2018919;29;20021;-96
2023/04/28 02:08:04;;;;;;;26.95;15.35;;;;;;;;;;2017133;29;20120;-96
2023/04/28 02:09:25;;;;;;;24.73;15.27;;;;;;;;;;2019653;29;20025;-96
2023/04/28 02:10:46;;;;;;;26.10;15.23;;;;;;;;;;2019232;29;20036;-96
2023/04/28 02:12:07;;;;;;;26.52;14.65;;;;;;;;;;2019081;29;20038;-96
2023/04/28 02:13:28;;;;;;;26.30;14.65;;;;;;;;;;2016930;29;20041;-96
2023/04/28 02:14:50;;;;;;;27.52;15.18;;;;;;;;;;2019427;29;20056;-96
2023/04/28 02:16:11;;;;;;;25.17;14.02;;;;;;;;;;2024213;29;20040;-96
2023/04/28 02:17:32;;;;;;;26.67;14.98;;;;;;;;;;2017379;29;20056;-96
2023/04/28 02:18:53;;;;;;;25.25;14.57;;;;;;;;;;2014572;29;20056;-96
2023/04/28 02:20:14;;;;;;;27.05;15.02;;;;;;;;;;2010278;29;20044;-96
2023/04/28 02:21:35;;;;;;;29.50;16.10;;;;;;;;;;2015613;29;20045;-95
2023/04/28 02:22:56;;;;;;;24.00;14.10;;;;;;;;;;2017769;29;20040;-96
2023/04/28 02:24:17;;;;;;;26.33;14.77;;;;;;;;;;2019584;29;20033;-96
2023/04/28 02:25:38;;;;;;;25.40;13.55;;;;;;;;;;2019676;29;20037;-96
2023/04/28 02:26:58;;;;;;;30.75;15.80;;;;;;;;;;2018286;29;20033;-96
2023/04/28 02:28:19;;;;;;;25.80;14.80;;;;;;;;;;2009621;29;20033;-96
2023/04/28 02:29:41;;;;;;;28.67;15.43;;;;;;;;;;2016593;29;20032;-96
2023/04/28 02:31:02;;;;;;;26.88;14.23;;;;;;;;;;2013582;29;20037;-96
2023/04/28 02:32:23;;;;;;;32.35;15.48;;;;;;;;;;2018154;29;20029;-96
2023/04/28 02:33:45;;;;;;;28.38;15.13;;;;;;;;;;2019592;29;20085;-96
2023/04/28 02:35:06;;;;;;;28.13;14.68;;;;;;;;;;2026051;29;20032;-96
2023/04/28 02:36:27;;;;;;;29.15;15.40;;;;;;;;;;2010327;29;20041;-96
2023/04/28 02:37:48;;;;;;;30.85;15.88;;;;;;;;;;2013966;29;20026;-96
2023/04/28 02:39:09;;;;;;;30.30;15.57;;;;;;;;;;2015909;29;20029;-96
2023/04/28 02:40:30;;;;;;;27.95;14.85;;;;;;;;;;2019182;29;20040;-95
2023/04/28 02:41:51;;;;;;;25.90;14.05;;;;;;;;;;2024123;29;20056;-96
2023/04/28 02:43:12;;;;;;;28.70;15.05;;;;;;;;;;2020947;29;20036;-96
2023/04/28 02:44:33;;;;;;;28.90;15.13;;;;;;;;;;2015704;29;20044;-96
2023/04/28 02:45:54;;;;;;;25.35;14.73;;;;;;;;;;2018098;29;20032;-96
2023/04/28 02:47:15;;;;;;;23.65;14.38;;;;;;;;;;2017276;29;20135;-96
2023/04/28 02:48:41;;;;;;;30.95;15.73;;;;;;;;;;2015778;29;20041;-96
2023/04/28 02:50:03;;;;;;;26.67;14.43;;;;;;;;;;2016271;29;20603;-96
2023/04/28 02:51:24;;;;;;;26.77;15.52;;;;;;;;;;2020566;29;20033;-96
2023/04/28 02:52:45;;;;;;;24.00;14.35;;;;;;;;;;2018213;29;20036;-96
2023/04/28 02:54:09;;;;;;;28.67;15.57;;;;;;;;;;2026513;29;20092;-96
2023/04/28 02:55:31;;;;;;;24.95;15.52;;;;;;;;;;2029621;29;20032;-96
2023/04/28 02:56:55;;;;;;;30.60;15.73;;;;;;;;;;2029239;29;20609;-96
2023/04/28 02:58:19;;;;;;;28.85;15.30;;;;;;;;;;2035495;29;20154;-96
2023/04/28 02:59:40;;;;;;;29.30;15.52;;;;;;;;;;2032709;29;20033;-96
2023/04/28 03:01:01;;;;;;;29.42;15.35;;;;;;;;;;2028851;29;20039;-96
2023/04/28 03:02:22;;;;;;;32.17;16.95;;;;;;;;;;2029975;29;20044;-96
2023/04/28 03:03:45;;;;;;;25.95;15.10;;;;;;;;;;2030994;29;20028;-96
2023/04/28 03:05:06;;;;;;;27.83;15.52;;;;;;;;;;2030550;29;20166;-96
2023/04/28 03:06:27;;;;;;;29.50;15.67;;;;;;;;;;2027073;29;20037;-96
2023/04/28 03:07:48;;;;;;;23.10;15.25;;;;;;;;;;2031947;29;20424;-96
2023/04/28 03:09:11;;;;;;;25.63;15.00;;;;;;;;;;2031821;29;20032;-96
2023/04/28 03:10:32;;;;;;;29.48;15.63;;;;;;;;;;2037870;29;20073;-96
2023/04/28 03:11:53;;;;;;;25.23;15.30;;;;;;;;;;2028762;29;20025;-96
2023/04/28 03:13:15;;;;;;;26.90;15.98;;;;;;;;;;2023139;29;20033;-96
2023/04/28 03:14:36;;;;;;;31.88;16.55;;;;;;;;;;2018075;29;20045;-96
2023/04/28 03:15:57;;;;;;;37.65;18.35;;;;;;;;;;2013230;29;20020;-96
2023/04/28 03:17:18;;;;;;;27.65;15.40;;;;;;;;;;2016122;29;20014;-96
2023/04/28 03:18:39;;;;;;;28.60;15.88;;;;;;;;;;2015490;29;20040;-96
2023/04/28 03:20:01;;;;;;;27.48;16.15;;;;;;;;;;2030396;29;20032;-96
2023/04/28 03:21:26;;;;;;;33.10;16.98;;;;;;;;;;2024574;29;20389;-96
2023/04/28 03:22:47;;;;;;;23.52;14.15;;;;;;;;;;2023307;29;20037;-96
2023/04/28 03:24:08;;;;;;;27.65;15.27;;;;;;;;;;2021437;29;20143;-96
2023/04/28 03:25:29;;;;;;;30.20;15.40;;;;;;;;;;2022609;29;20041;-96
2023/04/28 03:26:50;;;;;;;30.48;15.45;;;;;;;;;;2021779;29;20052;-96
2023/04/28 03:28:12;;;;;;;29.40;16.38;;;;;;;;;;2024764;29;20040;-96
2023/04/28 03:29:33;;;;;;;29.48;15.23;;;;;;;;;;2021601;29;20037;-96
2023/04/28 03:30:54;;;;;;;27.15;15.60;;;;;;;;;;2022843;29;20040;-96
2023/04/28 03:32:15;;;;;;;28.55;16.13;;;;;;;;;;2022236;29;20093;-96
2023/04/28 03:33:36;;;;;;;31.88;17.52;;;;;;;;;;2023156;29;20025;-96
2023/04/28 03:34:58;;;;;;;29.98;17.30;;;;;;;;;;2023924;29;20044;-96
2023/04/28 03:36:19;;;;;;;26.40;15.30;;;;;;;;;;2022183;29;20048;-96
2023/04/28 03:37:40;;;;;;;25.98;15.57;;;;;;;;;;2023880;29;20036;-96
2023/04/28 03:39:01;;;;;;;30.25;16.08;;;;;;;;;;2021009;29;20060;-96
2023/04/28 03:40:22;;;;;;;28.42;16.52;;;;;;;;;;2024211;29;20044;-96
2023/04/28 03:41:43;;;;;;;25.05;16.08;;;;;;;;;;2028974;29;20053;-96
2023/04/28 03:43:04;;;;;;;27.85;16.48;;;;;;;;;;2032231;29;20137;-96
2023/04/28 03:44:26;;;;;;;30.88;18.00;;;;;;;;;;2029275;29;20033;-96
2023/04/28 03:45:48;;;;;;;30.20;16.55;;;;;;;;;;2033364;29;20035;-96
2023/04/28 03:47:09;;;;;;;;;;;;;;;;;;2024612;29;20049;-96
2023/04/28 03:48:30;;;;;;;33.60;16.92;;;;;;;;;;2034110;29;19900;-96
2023/04/28 03:49:51;;;;;;;36.00;19.48;;;;;;;;;;2032233;29;20128;-96
2023/04/28 03:51:12;;;;;;;30.63;18.00;;;;;;;;;;2029863;29;20017;-96
2023/04/28 03:52:33;;;;;;;30.45;17.70;;;;;;;;;;2031744;29;20036;-96
2023/04/28 03:53:55;;;;;;;30.17;17.52;;;;;;;;;;2032526;29;20020;-96
2023/04/28 03:55:25;;;;;;;41.25;19.90;;;;;;;;;;2031232;29;20033;-96
2023/04/28 03:56:46;;;;;;;29.73;17.90;;;;;;;;;;2029180;29;20051;-96
2023/04/28 03:58:10;;;;;;;30.15;16.83;;;;;;;;;;2031204;29;20033;-96
2023/04/28 03:59:33;;;;;;;31.77;17.58;;;;;;;;;;2032220;29;20037;-96
2023/04/28 04:00:59;;;;;;;33.55;17.38;;;;;;;;;;2031742;29;20029;-96
2023/04/28 04:02:20;;;;;;;25.17;16.90;;;;;;;;;;2030465;29;20282;-96
2023/04/28 04:03:41;;;;;;;28.35;17.15;;;;;;;;;;2032158;29;20039;-96
2023/04/28 04:05:03;;;;;;;32.20;17.05;;;;;;;;;;2031820;29;20040;-96
2023/04/28 04:06:31;;;;;;;32.83;17.02;;;;;;;;;;2022503;29;20061;-96
2023/04/28 04:07:53;;;;;;;31.83;18.30;;;;;;;;;;2029678;29;20365;-96
2023/04/28 04:09:14;;;;;;;28.15;17.13;;;;;;;;;;2030899;29;20012;-96
2023/04/28 04:10:42;;;;;;;30.73;18.15;;;;;;;;;;2029207;29;20104;-96
2023/04/28 04:12:03;;;;;;;28.05;16.75;;;;;;;;;;2033082;29;20039;-96
2023/04/28 04:13:25;;;;;;;32.57;18.00;;;;;;;;;;2028842;29;20104;-96
2023/04/28 04:14:46;;;;;;;31.65;18.60;;;;;;;;;;2031048;29;20133;-96
2023/04/28 04:16:07;;;;;;;30.08;17.77;;;;;;;;;;2029257;29;20025;-96
2023/04/28 04:17:28;;;;;;;32.90;17.85;;;;;;;;;;2023795;29;20032;-96
2023/04/28 04:18:50;;;;;;;34.58;18.25;;;;;;;;;;2028652;29;20044;-95
2023/04/28 04:20:11;;;;;;;42.22;19.83;;;;;;;;;;2032225;29;20021;-96
2023/04/28 04:21:32;;;;;;;31.83;17.67;;;;;;;;;;2032728;29;20020;-96
2023/04/28 04:22:53;;;;;;;32.75;19.15;;;;;;;;;;2031422;29;20032;-96
2023/04/28 04:24:17;;;;;;;30.48;16.58;;;;;;;;;;2029813;29;20160;-96
2023/04/28 04:25:38;;;;;;;36.55;19.60;;;;;;;;;;2032186;29;20096;-96
2023/04/28 04:26:59;;;;;;;36.85;18.35;;;;;;;;;;2029778;29;20045;-96
2023/04/28 04:28:20;;;;;;;32.65;18.88;;;;;;;;;;2031076;29;20021;-96
2023/04/28 04:29:41;;;;;;;29.80;17.98;;;;;;;;;;2031413;29;20028;-96
2023/04/28 04:31:02;;;;;;;28.55;18.08;;;;;;;;;;2031219;29;20540;-95
2023/04/28 04:32:24;;;;;;;34.15;20.13;;;;;;;;;;2032106;29;20028;-96
2023/04/28 04:33:45;;;;;;;35.03;18.33;;;;;;;;;;2032087;29;20044;-96
2023/04/28 04:35:06;;;;;;;33.05;18.25;;;;;;;;;;2032595;29;20021;-96
2023/04/28 04:36:27;;;;;;;32.85;18.13;;;;;;;;;;2019755;29;20304;-96
2023/04/28 04:37:49;;;;;;;32.77;18.63;;;;;;;;;;2028571;29;20039;-96
2023/04/28 04:39:18;;;;;;;32.55;17.73;;;;;;;;;;2026034;29;20440;-96
2023/04/28 04:40:39;;;;;;;32.92;18.92;;;;;;;;;;2024483;29;20033;-96
2023/04/28 04:42:01;;;;;;;33.85;19.65;;;;;;;;;;2024493;29;20044;-96
2023/04/28 04:43:22;;;;;;;;;;;;;;;;;;2026453;29;20044;-96
2023/04/28 04:44:43;;;;;;;31.65;17.85;;;;;;;;;;2022371;29;20014;-96
2023/04/28 04:46:05;;;;;;;33.33;18.38;;;;;;;;;;2015148;29;20029;-96
2023/04/28 04:47:27;;;;;;;36.83;19.42;;;;;;;;;;2016147;29;20472;-96
2023/04/28 04:48:48;;;;;;;29.52;17.08;;;;;;;;;;2021901;29;20034;-96
2023/04/28 04:50:10;;;;;;;34.55;19.58;;;;;;;;;;2022561;29;20041;-96
2023/04/28 04:51:31;;;;;;;39.42;19.73;;;;;;;;;;2023114;29;20048;-96
2023/04/28 04:52:55;;;;;;;34.90;19.15;;;;;;;;;;2025907;29;20044;-96
2023/04/28 04:54:16;;;;;;;38.05;18.85;;;;;;;;;;2023715;29;20036;-96
2023/04/28 04:55:40;;;;;;;31.63;17.98;;;;;;;;;;2024850;29;20092;-96
2023/04/28 04:57:02;;;;;;;34.70;19.08;;;;;;;;;;2020243;29;20037;-96
2023/04/28 04:58:23;;;;;;;33.85;19.30;;;;;;;;;;2022504;29;20047;-96
2023/04/28 04:59:45;;;;;;;32.00;18.23;;;;;;;;;;2024324;29;20032;-96
2023/04/28 05:01:08;;;;;;;31.48;19.85;;;;;;;;;;2025442;29;20424;-96
2023/04/28 05:02:29;;;;;;;40.88;19.98;;;;;;;;;;2022073;29;20032;-96
2023/04/28 05:03:50;;;;;;;36.73;20.03;;;;;;;;;;2024812;29;20029;-96
2023/04/28 05:05:12;;;;;;;33.63;19.38;;;;;;;;;;2018604;29;20041;-96
2023/04/28 05:06:33;;;;;;;53.17;23.17;;;;;;;;;;2022487;29;20037;-96
2023/04/28 05:07:54;;;;;;;34.73;20.20;;;;;;;;;;2021825;29;20033;-96
2023/04/28 05:09:18;;;;;;;36.30;19.77;;;;;;;;;;2023236;29;20051;-96
2023/04/28 05:10:40;;;;;;;30.60;17.90;;;;;;;;;;2024230;29;20420;-96
2023/04/28 05:12:04;;;;;;;40.30;19.23;;;;;;;;;;2024158;29;20033;-96
2023/04/28 05:13:25;;;;;;;33.38;19.88;;;;;;;;;;2022672;29;20029;-96
2023/04/28 05:14:49;;;;;;;34.20;19.52;;;;;;;;;;2021397;29;20074;-96
2023/04/28 05:16:18;;;;;;;34.05;18.55;;;;;;;;;;2024908;29;20044;-96
2023/04/28 05:17:39;;;;;;;33.15;19.35;;;;;;;;;;2023208;29;20045;-96
2023/04/28 05:19:00;;;;;;;33.05;19.08;;;;;;;;;;2019104;29;20038;-96
2023/04/28 05:20:22;;;;;;;36.40;19.40;;;;;;;;;;2021989;29;20051;-96
2023/04/28 05:21:43;;;;;;;33.10;19.73;;;;;;;;;;2021109;29;20051;-96
2023/04/28 05:23:05;;;;;;;35.58;20.85;;;;;;;;;;2020758;29;20033;-96
2023/04/28 05:24:27;;;;;;;36.10;18.45;;;;;;;;;;2021896;29;20028;-96
2023/04/28 05:25:48;;;;;;;36.58;20.23;;;;;;;;;;2024467;29;20399;-96
2023/04/28 05:27:09;;;;;;;41.03;19.80;;;;;;;;;;2023872;29;20032;-96
2023/04/28 05:28:33;;;;;;;35.88;20.63;;;;;;;;;;2021870;29;20040;-96
2023/04/28 05:29:54;;;;;;;34.58;20.25;;;;;;;;;;2024789;29;20036;-96
2023/04/28 05:31:18;;;;;;;33.70;20.13;;;;;;;;;;2023968;29;20021;-96
2023/04/28 05:32:41;;;;;;;34.30;19.60;;;;;;;;;;2024927;29;20025;-96
2023/04/28 05:34:03;;;;;;;36.90;19.23;;;;;;;;;;2021938;29;20081;-96
2023/04/28 05:35:24;;;;;;;37.10;20.40;;;;;;;;;;2024574;29;20036;-96
2023/04/28 05:36:46;;;;;;;36.15;20.95;;;;;;;;;;2022973;29;20045;-96
2023/04/28 05:38:07;;;;;;;44.15;21.65;;;;;;;;;;2025225;29;20051;-95
2023/04/28 05:39:31;;;;;;;37.08;20.55;;;;;;;;;;2024419;29;20033;-96
2023/04/28 05:40:52;;;;;;;31.13;19.45;;;;;;;;;;2027889;29;20036;-96
2023/04/28 05:42:13;;;;;;;33.42;19.90;;;;;;;;;;2038222;29;20047;-96
2023/04/28 05:43:35;;;;;;;40.03;19.55;;;;;;;;;;2037265;29;20032;-96
2023/04/28 05:45:04;;;;;;;35.22;20.40;;;;;;;;;;2045248;29;20051;-96
2023/04/28 05:46:25;;;;;;;32.13;19.95;;;;;;;;;;2040407;29;20032;-95
2023/04/28 05:47:47;;;;;;;42.47;20.27;;;;;;;;;;2035659;29;20024;-95
2023/04/28 05:49:08;;;;;;;36.07;19.23;;;;;;;;;;2019308;29;20037;-96
2023/04/28 05:50:30;;;;;;;39.17;21.08;;;;;;;;;;2023214;29;20021;-95
2023/04/28 05:51:51;;;;;;;30.08;19.05;;;;;;;;;;2035607;29;20400;-95
2023/04/28 05:53:17;;;;;;;32.40;18.90;;;;;;;;;;2033300;29;20151;-96
2023/04/28 05:54:48;;;;;;;35.00;20.60;;;;;;;;;;2032481;29;20039;-96
2023/04/28 05:56:21;;;;;;;28.20;19.23;;;;;;;;;;2033952;29;20035;-96
2023/04/28 05:57:48;;;;;;;32.83;18.63;;;;;;;;;;2023932;29;20386;-96
2023/04/28 05:59:12;;;;;;;35.08;19.13;;;;;;;;;;2032058;29;20036;-96
2023/04/28 06:00:38;;;;;;;29.25;18.77;;;;;;;;;;2034466;29;20037;-96
2023/04/28 06:02:10;;;;;;;33.88;19.63;;;;;;;;;;2026834;29;20045;-96
2023/04/28 06:03:39;;;;;;;38.13;20.08;;;;;;;;;;2032874;29;20017;-96
2023/04/28 06:05:08;;;;;;;32.45;18.77;;;;;;;;;;2034458;29;20020;-96
2023/04/28 06:06:31;;;;;;;30.20;18.83;;;;;;;;;;2033741;29;20009;-96
2023/04/28 06:07:54;;;;;;;34.10;19.85;;;;;;;;;;2017878;29;20064;-96
2023/04/28 06:09:33;;;;;;;33.13;20.67;;;;;;;;;;2034387;29;20083;-96
2023/04/28 08:24:49;;;;;;;;;;;;;;;;;;2041322;29;20423;-80
2023/04/28 08:28:44;;;;;;;66.28;28.30;;;;;;;;;;2033048;29;20480;-80
2023/04/28 08:30:26;;;;;;;35.05;18.38;;;;;;;;;;2028875;29;20032;-80
2023/04/28 08:32:20;;;;;;;27.40;17.33;;;;;;;;;;2040006;29;20024;-81
2023/04/28 08:40:35;;;;;;;;;;;;;;;;;;;;;
2023/04/28 08:42:30;;;;;;;30.98;18.30;;;;;;;;;;2017112;29;20040;-81
2023/04/28 08:46:39;;;;;;;49.10;22.13;;;;;;;;;;2006582;29;20038;-81
2023/04/28 08:48:42;;;;;;;;;;;;;;;;;;;;;
2023/04/28 08:50:29;;;;;;;31.80;19.60;;;;;;;;;;2018003;29;20044;-80
2023/04/28 08:52:25;;;;;;;39.38;23.05;;;;;;;;;;2019421;29;20048;-79
2023/04/28 09:12:58;;;;;;;39.40;20.80;;;;;;;;;;2010151;29;20540;-79
2023/04/28 09:15:25;;;;;;;;;;;;;;;;;;;;;
2023/04/28 09:17:11;;;;;;;35.78;21.02;;;;;;;;;;1973296;30;20039;-81
2023/04/28 09:21:20;;;;;;;;;;;;;;;;;;;;;
2023/04/28 09:23:26;;;;;;;39.30;20.50;;;;;;;;;;1953605;30;20505;-78
2023/04/28 09:25:31;;;;;;;52.25;22.83;;;;;;;;;;1948868;30;20053;-79
2023/04/28 09:27:34;;;;;;;38.22;22.63;;;;;;;;;;1952520;30;20058;-79
2023/04/28 09:29:38;;;;;;;31.70;20.58;;;;;;;;;;1952382;30;20045;-80
2023/04/28 09:33:24;;;;;;;41.80;23.10;;;;;;;;;;1929697;30;20039;-81
2023/04/28 09:35:16;;;;;;;37.65;20.20;;;;;;;;;;1931567;30;20058;-81
2023/04/28 09:42:03;;;;;;;45.15;22.50;;;;;;;;;;1953362;30;20036;-80
2023/04/28 09:43:31;;;;;;;40.42;23.02;;;;;;;;;;1943589;30;20053;-80
2023/04/28 09:45:09;;;;;;;40.05;19.58;;;;;;;;;;1951663;30;20048;-80
2023/04/28 09:47:22;;;;;;;;;;;;;;;;;;;;;
2023/04/28 09:50:05;;;;;;;;;;;;;;;;;;;;;
2023/04/28 09:54:15;;;;;;;;;;;;;;;;;;;;;
2023/04/28 09:58:26;;;;;;;36.17;20.33;;;;;;;;;;1938080;30;20423;-79
2023/04/28 10:00:15;;;;;;;56.00;27.15;;;;;;;;;;1951228;30;20132;-81
2023/04/28 10:02:10;;;;;;;;;;;;;;;;;;;;;
2023/04/28 10:04:06;;;;;;;34.70;19.45;;;;;;;;;;1974887;30;20031;-81
2023/04/28 10:16:44;;;;;;;44.17;20.60;;;;;;;;;;1966373;30;20997;-80
2023/04/28 10:18:43;;;;;;;37.83;19.27;;;;;;;;;;1960407;30;20823;-79
2023/04/28 10:20:26;;;;;;;44.22;20.20;;;;;;;;;;1937348;30;20053;-79
2023/04/28 10:22:09;;;;;;;39.17;18.00;;;;;;;;;;1942592;30;20042;-79
2023/04/28 10:23:42;;;;;;;;;;;;;;;;;;;;;
2023/04/28 10:25:54;;;;;;;;;;;;;;;;;;;;;
2023/04/28 10:34:24;;;;;;;;;;;;;;;;;;;;;
2023/04/28 10:45:14;;;;;;;33.33;16.90;;;;;;;;;;1971724;30;20485;-82
2023/04/28 10:51:48;;;;;;;;;;;;;;;;;;;;;
2023/04/28 10:53:51;;;;;;;31.20;18.02;;;;;;;;;;1958726;30;20028;-81
2023/04/28 11:07:04;;;;;;;;;;;;;;;;;;;;;
2023/04/28 11:09:12;;;;;;;47.72;24.98;;;;;;;;;;1965588;30;20040;-80
2023/04/28 11:36:01;;;;;;;54.88;26.08;;;;;;;;;;1980748;30;20043;-78
2023/04/28 11:44:39;;;;;;;;;;;;;;;;;;;;;
2023/04/28 11:48:26;;;;;;;48.63;26.38;;;;;;;;;;1981386;30;20083;-82
2023/04/28 11:52:39;;;;;;;76.68;31.58;;;;;;;;;;1976608;29;20036;-82
2023/04/28 11:54:31;;;;;;;;;;;;;;;;;;;;;
2023/04/28 11:56:33;;;;;;;56.75;26.75;;;;;;;;;;1979998;30;20400;-82
2023/04/28 11:59:09;;;;;;;;;;;;;;;;;;;;;
2023/04/28 12:00:21;;;;;;;54.35;26.38;;;;;;;;;;1954869;30;20045;-81
2023/04/28 12:06:15;;;;;;;45.70;23.90;;;;;;;;;;1966758;30;20028;-82
2023/04/28 12:08:21;;;;;;;;;;;;;;;;;;;;;
2023/04/28 12:10:17;;;;;;;;;;;;;;;;;;;;;
2023/04/28 12:12:17;;;;;;;;;;;;;;;;;;;;;
2023/04/28 12:37:09;;;;;;;44.75;21.90;;;;;;;;;;1918540;30;20042;-81
2023/04/28 12:49:50;;;;;;;23.95;13.45;;;;;;;;;;1936646;30;20018;-78
2023/04/28 12:53:29;;;;;;;19.02;10.48;;;;;;;;;;1924440;30;20051;-79
2023/04/28 12:55:08;;;;;;;19.17;9.57;;;;;;;;;;1942933;30;20045;-79
2023/04/28 12:56:53;;;;;;;15.77;8.65;;;;;;;;;;1951144;30;20045;-78
2023/04/28 12:58:38;;;;;;;11.80;7.72;;;;;;;;;;1951642;30;20033;-78
2023/04/28 13:00:20;;;;;;;14.10;7.10;;;;;;;;;;1952218;30;20041;-79
2023/04/28 13:04:16;;;;;;;12.95;6.95;;;;;;;;;;1949743;30;20054;-82
2023/04/28 13:05:59;;;;;;;17.40;7.80;;;;;;;;;;1952563;30;20043;-80
2023/04/28 13:07:41;;;;;;;12.05;7.05;;;;;;;;;;1959123;30;20048;-80
2023/04/28 13:18:32;;;;;;;16.90;9.05;;;;;;;;;;1973049;30;20031;-81
2023/04/28 13:20:14;;;;;;;17.63;9.73;;;;;;;;;;1987817;29;20035;-81
2023/04/28 13:22:11;;;;;;;16.90;11.13;;;;;;;;;;1987890;29;20038;-78
2023/04/28 13:23:56;;;;;;;20.85;11.02;;;;;;;;;;1981875;29;20043;-79
2023/04/28 13:36:39;;;;;;;24.20;10.57;;;;;;;;;;1996407;29;20041;-79
2023/04/28 13:38:25;;;;;;;;;;;;;;;;;;;;;
2023/04/28 13:42:12;;;;;;;18.42;10.20;;;;;;;;;;1965648;30;20036;-78
2023/04/28 13:46:13;;;;;;;18.58;9.55;;;;;;;;;;1980351;30;20042;-80
2023/04/28 13:48:03;;;;;;;21.55;9.98;;;;;;;;;;1981009;29;20035;-79
2023/04/28 13:51:56;;;;;;;25.80;10.45;;;;;;;;;;1960295;30;20037;-79
2023/04/28 13:55:52;;;;;;;17.30;8.95;;;;;;;;;;1978747;29;20514;-79
2023/04/28 13:58:02;;;;;;;;;;;;;;;;;;;;;
2023/04/28 13:59:33;;;;;;;14.68;8.70;;;;;;;;;;1994536;29;20041;-78
2023/04/28 14:05:10;;;;;;;16.13;8.77;;;;;;;;;;2013073;29;20052;-78
2023/04/28 14:08:47;;;;;;;15.55;8.43;;;;;;;;;;2010981;29;20037;-80
2023/04/28 14:12:09;;;;;;;14.73;7.82;;;;;;;;;;2009694;29;20029;-82
2023/04/28 14:13:57;;;;;;;16.65;8.57;;;;;;;;;;1995696;29;20046;-80
2023/04/28 14:15:27;;;;;;;14.10;8.00;;;;;;;;;;2002921;29;20488;-80
2023/04/28 14:19:23;;;;;;;12.67;7.90;;;;;;;;;;2017309;29;20029;-80
2023/04/28 14:20:55;;;;;;;14.52;8.02;;;;;;;;;;1985894;29;20496;-78
2023/04/28 14:24:53;;;;;;;;;;;;;;;;;;;;;
2023/04/28 14:26:42;;;;;;;16.60;8.38;;;;;;;;;;1988500;29;20047;-82
2023/04/28 14:31:07;;;;;;;;;;;;;;;;;;;;;
2023/04/28 14:41:11;;;;;;;13.80;8.25;;;;;;;;;;1936828;30;20427;-81
2023/04/28 14:49:03;;;;;;;;;;;;;;;;;;;;;
2023/04/28 14:57:18;;;;;;;21.55;9.70;;;;;;;;;;1941187;30;19922;-78
2023/04/28 14:59:14;;;;;;;14.05;7.95;;;;;;;;;;1951830;30;20041;-79
2023/04/28 15:01:25;;;;;;;;;;;;;;;;;;;;;
2023/04/28 15:02:57;;;;;;;13.25;7.18;;;;;;;;;;1945269;30;20053;-79
2023/04/28 15:05:03;;;;;;;;;;;;;;;;;;;;;
2023/04/28 15:06:42;;;;;;;17.48;8.02;;;;;;;;;;1950602;30;20065;-79
2023/04/28 15:10:51;;;;;;;15.75;7.72;;;;;;;;;;1960695;30;20310;-78
2023/04/28 15:16:39;;;;;;;14.88;8.40;;;;;;;;;;1937302;30;20045;-80
2023/04/28 15:18:45;;;;;;;;;;;;;;;;;;;;;
2023/04/28 15:20:31;;;;;;;;;;;;;;;;;;;;;
2023/04/28 15:22:25;;;;;;;19.30;9.68;;;;;;;;;;1977925;30;20408;-83
2023/04/28 15:24:14;;;;;;;16.27;9.00;;;;;;;;;;1966405;30;20048;-82
2023/04/28 15:34:29;;;;;;;;;;;;;;;;;;;;;
2023/04/28 15:37:55;;;;;;;15.60;8.80;;;;;;;;;;1994493;29;20046;-79
2023/04/28 15:39:55;;;;;;;;;;;;;;;;;;;;;
2023/04/28 15:44:07;;;;;;;;;;;;;;;;;;;;;
2023/04/28 15:46:03;;;;;;;19.95;9.73;;;;;;;;;;1994592;29;20037;-79
2023/04/28 15:52:21;;;;;;;16.00;8.85;;;;;;;;;;1980666;29;20031;-81
2023/04/28 15:58:09;;;;;;;;;;;;;;;;;;;;;
2023/04/28 16:00:10;;;;;;;;;;;;;;;;;;;;;
2023/04/28 16:01:54;;;;;;;17.50;9.07;;;;;;;;;;1952312;30;20048;-81
2023/04/28 16:03:22;;;;;;;14.38;8.55;;;;;;;;;;1951278;30;20440;-81
2023/04/28 16:07:36;;;;;;;16.83;9.43;;;;;;;;;;1947021;30;20622;-81
2023/04/28 16:11:47;;;;;;;;;;;;;;;;;;;;;
2023/04/28 16:13:35;;;;;;;17.08;9.35;;;;;;;;;;1932403;30;20030;-81
2023/04/28 16:17:39;;;;;;;;;;;;;;;;;;;;;
2023/04/28 16:26:14;;;;;;;16.20;8.27;;;;;;;;;;1929615;30;20499;-81
2023/04/28 16:30:16;;;;;;;16.17;7.90;;;;;;;;;;1951697;30;20021;-80
2023/04/28 16:34:26;;;;;;;12.68;8.15;;;;;;;;;;1960514;30;20399;-82
2023/04/28 16:36:46;;;;;;;;;;;;;;;;;;;;;
2023/04/28 16:38:46;;;;;;;36.28;13.43;;;;;;;;;;1979372;29;20043;-82
2023/04/28 16:53:38;;;;;;;17.85;8.77;;;;;;;;;;2000714;29;20045;-81
2023/04/28 16:57:50;;;;;;;22.38;10.52;;;;;;;;;;1980639;29;20046;-81
2023/04/28 17:01:42;;;;;;;20.38;10.75;;;;;;;;;;1973054;30;20046;-83